sensor_id;sensor_type;location;lat;lon;timestamp;temperature;humidity
42973;DHT22;28610;51.214;6.962;2022-09-24T00:00:27;14.50;86.60
42973;DHT22;28610;51.214;6.962;2022-09-24T00:03:12;14.50;87.30
42973;DHT22;28610;51.214;6.962;2022-09-24T00:06:00;14.40;87.70
42973;DHT22;28610;51.214;6.962;2022-09-24T00:08:47;14.30;88.00
42973;DHT22;28610;51.214;6.962;2022-09-24T00:11:33;14.20;90.00
42973;DHT22;28610;51.214;6.962;2022-09-24T00:14:18;14.10;90.00
42973;DHT22;28610;51.214;6.962;2022-09-24T00:17:05;14.20;90.10
42973;DHT22;28610;51.214;6.962;2022-09-24T00:19:50;14.20;90.20
42973;DHT22;28610;51.214;6.962;2022-09-24T00:22:36;14.10;90.10
42973;DHT22;28610;51.214;6.962;2022-09-24T00:25:21;14.10;90.10
42973;DHT22;28610;51.214;6.962;2022-09-24T00:28:24;14.00;90.50
42973;DHT22;28610;51.214;6.962;2022-09-24T00:31:09;14.00;90.60
42973;DHT22;28610;51.214;6.962;2022-09-24T00:33:56;14.00;90.70
42973;DHT22;28610;51.214;6.962;2022-09-24T00:36:42;14.10;90.30
42973;DHT22;28610;51.214;6.962;2022-09-24T00:39:29;14.10;90.70
42973;DHT22;28610;51.214;6.962;2022-09-24T00:42:17;14.10;90.50
42973;DHT22;28610;51.214;6.962;2022-09-24T00:45:03;14.20;90.30
42973;DHT22;28610;51.214;6.962;2022-09-24T00:47:50;14.20;90.40
42973;DHT22;28610;51.214;6.962;2022-09-24T00:50:37;14.20;90.50
42973;DHT22;28610;51.214;6.962;2022-09-24T00:53:23;14.10;91.20
42973;DHT22;28610;51.214;6.962;2022-09-24T00:56:14;14.00;90.90
42973;DHT22;28610;51.214;6.962;2022-09-24T00:59:01;14.10;91.00
42973;DHT22;28610;51.214;6.962;2022-09-24T01:01:47;14.20;90.90
42973;DHT22;28610;51.214;6.962;2022-09-24T01:04:33;14.20;90.50
42973;DHT22;28610;51.214;6.962;2022-09-24T01:07:20;14.20;90.20
42973;DHT22;28610;51.214;6.962;2022-09-24T01:10:05;14.30;90.60
42973;DHT22;28610;51.214;6.962;2022-09-24T01:12:55;14.20;90.40
42973;DHT22;28610;51.214;6.962;2022-09-24T01:15:48;14.10;90.50
42973;DHT22;28610;51.214;6.962;2022-09-24T01:18:40;14.10;90.90
42973;DHT22;28610;51.214;6.962;2022-09-24T01:21:34;14.10;90.80
42973;DHT22;28610;51.214;6.962;2022-09-24T01:24:49;14.10;90.70
42973;DHT22;28610;51.214;6.962;2022-09-24T01:27:47;14.00;90.70
42973;DHT22;28610;51.214;6.962;2022-09-24T01:30:40;14.00;91.10
42973;DHT22;28610;51.214;6.962;2022-09-24T01:33:29;14.00;90.90
42973;DHT22;28610;51.214;6.962;2022-09-24T01:36:16;14.00;91.20
42973;DHT22;28610;51.214;6.962;2022-09-24T01:39:05;14.00;91.20
42973;DHT22;28610;51.214;6.962;2022-09-24T01:41:52;14.10;91.10
42973;DHT22;28610;51.214;6.962;2022-09-24T01:44:41;14.00;91.00
42973;DHT22;28610;51.214;6.962;2022-09-24T01:47:31;14.00;91.10
42973;DHT22;28610;51.214;6.962;2022-09-24T01:50:18;14.00;91.40
42973;DHT22;28610;51.214;6.962;2022-09-24T01:53:07;14.00;91.60
42973;DHT22;28610;51.214;6.962;2022-09-24T01:55:59;13.90;91.70
42973;DHT22;28610;51.214;6.962;2022-09-24T01:58:48;13.90;91.70
42973;DHT22;28610;51.214;6.962;2022-09-24T02:01:39;13.90;91.70
42973;DHT22;28610;51.214;6.962;2022-09-24T02:04:29;13.90;91.80
42973;DHT22;28610;51.214;6.962;2022-09-24T02:07:24;14.00;91.90
42973;DHT22;28610;51.214;6.962;2022-09-24T02:10:13;14.00;91.70
42973;DHT22;28610;51.214;6.962;2022-09-24T02:13:02;13.90;91.70
42973;DHT22;28610;51.214;6.962;2022-09-24T02:15:50;14.00;91.60
42973;DHT22;28610;51.214;6.962;2022-09-24T02:18:39;13.90;91.70
42973;DHT22;28610;51.214;6.962;2022-09-24T02:21:26;14.00;91.90
42973;DHT22;28610;51.214;6.962;2022-09-24T02:24:15;14.00;92.20
42973;DHT22;28610;51.214;6.962;2022-09-24T02:27:01;14.00;92.10
42973;DHT22;28610;51.214;6.962;2022-09-24T02:29:47;14.00;92.10
42973;DHT22;28610;51.214;6.962;2022-09-24T02:32:35;13.90;92.20
42973;DHT22;28610;51.214;6.962;2022-09-24T02:35:21;14.00;92.20
42973;DHT22;28610;51.214;6.962;2022-09-24T02:38:16;13.90;92.10
42973;DHT22;28610;51.214;6.962;2022-09-24T02:41:03;13.90;92.40
42973;DHT22;28610;51.214;6.962;2022-09-24T02:43:50;13.90;92.40
42973;DHT22;28610;51.214;6.962;2022-09-24T02:46:36;13.90;92.30
42973;DHT22;28610;51.214;6.962;2022-09-24T02:49:25;13.90;92.30
42973;DHT22;28610;51.214;6.962;2022-09-24T02:52:10;14.00;92.40
42973;DHT22;28610;51.214;6.962;2022-09-24T02:54:57;13.90;92.70
42973;DHT22;28610;51.214;6.962;2022-09-24T02:57:43;13.90;92.60
42973;DHT22;28610;51.214;6.962;2022-09-24T03:00:29;13.90;92.90
42973;DHT22;28610;51.214;6.962;2022-09-24T03:03:14;13.80;93.00
42973;DHT22;28610;51.214;6.962;2022-09-24T03:06:00;13.90;93.10
42973;DHT22;28610;51.214;6.962;2022-09-24T03:08:46;13.90;92.90
42973;DHT22;28610;51.214;6.962;2022-09-24T03:11:33;13.90;93.00
42973;DHT22;28610;51.214;6.962;2022-09-24T03:14:18;13.90;93.10
42973;DHT22;28610;51.214;6.962;2022-09-24T03:17:03;13.90;93.00
42973;DHT22;28610;51.214;6.962;2022-09-24T03:19:49;13.90;93.10
42973;DHT22;28610;51.214;6.962;2022-09-24T03:22:34;13.90;93.30
42973;DHT22;28610;51.214;6.962;2022-09-24T03:25:20;13.90;93.50
42973;DHT22;28610;51.214;6.962;2022-09-24T03:28:06;13.90;93.60
42973;DHT22;28610;51.214;6.962;2022-09-24T03:30:52;13.80;93.70
42973;DHT22;28610;51.214;6.962;2022-09-24T03:33:45;13.80;93.90
42973;DHT22;28610;51.214;6.962;2022-09-24T03:36:32;13.80;93.90
42973;DHT22;28610;51.214;6.962;2022-09-24T03:39:17;13.70;94.10
42973;DHT22;28610;51.214;6.962;2022-09-24T03:42:03;13.70;94.30
42973;DHT22;28610;51.214;6.962;2022-09-24T03:44:49;13.70;94.50
42973;DHT22;28610;51.214;6.962;2022-09-24T03:47:35;13.60;94.50
42973;DHT22;28610;51.214;6.962;2022-09-24T03:50:21;13.60;94.80
42973;DHT22;28610;51.214;6.962;2022-09-24T03:53:06;13.60;94.70
42973;DHT22;28610;51.214;6.962;2022-09-24T03:55:53;13.60;94.80
42973;DHT22;28610;51.214;6.962;2022-09-24T03:58:39;13.50;94.70
42973;DHT22;28610;51.214;6.962;2022-09-24T04:01:26;13.40;95.10
42973;DHT22;28610;51.214;6.962;2022-09-24T04:04:12;13.40;95.20
42973;DHT22;28610;51.214;6.962;2022-09-24T04:06:59;13.40;95.20
42973;DHT22;28610;51.214;6.962;2022-09-24T04:09:44;13.40;95.20
42973;DHT22;28610;51.214;6.962;2022-09-24T04:12:30;13.40;95.40
42973;DHT22;28610;51.214;6.962;2022-09-24T04:15:16;13.40;95.30
42973;DHT22;28610;51.214;6.962;2022-09-24T04:18:03;13.30;95.50
42973;DHT22;28610;51.214;6.962;2022-09-24T04:20:48;13.30;95.80
42973;DHT22;28610;51.214;6.962;2022-09-24T04:23:34;13.30;96.10
42973;DHT22;28610;51.214;6.962;2022-09-24T04:26:19;13.30;96.00
42973;DHT22;28610;51.214;6.962;2022-09-24T04:29:05;13.30;96.00
42973;DHT22;28610;51.214;6.962;2022-09-24T04:31:50;13.40;95.80
42973;DHT22;28610;51.214;6.962;2022-09-24T04:34:37;13.30;95.70
42973;DHT22;28610;51.214;6.962;2022-09-24T04:37:22;13.30;96.00
42973;DHT22;28610;51.214;6.962;2022-09-24T04:40:09;13.40;96.00
42973;DHT22;28610;51.214;6.962;2022-09-24T04:42:55;13.30;95.90
42973;DHT22;28610;51.214;6.962;2022-09-24T04:45:41;13.40;96.00
42973;DHT22;28610;51.214;6.962;2022-09-24T04:48:27;13.40;95.80
42973;DHT22;28610;51.214;6.962;2022-09-24T04:51:14;13.40;96.00
42973;DHT22;28610;51.214;6.962;2022-09-24T04:54:00;13.30;96.00
42973;DHT22;28610;51.214;6.962;2022-09-24T04:56:46;13.30;96.30
42973;DHT22;28610;51.214;6.962;2022-09-24T04:59:32;13.20;96.30
42973;DHT22;28610;51.214;6.962;2022-09-24T05:02:17;13.20;96.30
42973;DHT22;28610;51.214;6.962;2022-09-24T05:05:03;13.20;96.20
42973;DHT22;28610;51.214;6.962;2022-09-24T05:07:50;13.20;96.00
42973;DHT22;28610;51.214;6.962;2022-09-24T05:10:35;13.10;96.20
42973;DHT22;28610;51.214;6.962;2022-09-24T05:13:21;13.10;96.10
42973;DHT22;28610;51.214;6.962;2022-09-24T05:16:06;13.10;96.20
42973;DHT22;28610;51.214;6.962;2022-09-24T05:18:52;13.00;96.20
42973;DHT22;28610;51.214;6.962;2022-09-24T05:21:38;13.10;96.00
42973;DHT22;28610;51.214;6.962;2022-09-24T05:24:25;13.00;96.20
42973;DHT22;28610;51.214;6.962;2022-09-24T05:27:11;13.00;96.10
42973;DHT22;28610;51.214;6.962;2022-09-24T05:29:55;13.00;95.90
42973;DHT22;28610;51.214;6.962;2022-09-24T05:32:41;13.10;95.90
42973;DHT22;28610;51.214;6.962;2022-09-24T05:35:26;13.10;95.80
42973;DHT22;28610;51.214;6.962;2022-09-24T05:38:11;13.10;95.80
42973;DHT22;28610;51.214;6.962;2022-09-24T05:40:58;13.00;95.90
42973;DHT22;28610;51.214;6.962;2022-09-24T05:43:44;13.00;95.80
42973;DHT22;28610;51.214;6.962;2022-09-24T05:46:29;13.10;95.80
42973;DHT22;28610;51.214;6.962;2022-09-24T05:49:16;13.10;95.70
42973;DHT22;28610;51.214;6.962;2022-09-24T05:52:02;13.10;95.70
42973;DHT22;28610;51.214;6.962;2022-09-24T05:54:47;13.10;95.60
42973;DHT22;28610;51.214;6.962;2022-09-24T05:57:34;13.10;95.60
42973;DHT22;28610;51.214;6.962;2022-09-24T06:00:19;13.10;95.50
42973;DHT22;28610;51.214;6.962;2022-09-24T06:03:10;13.10;95.60
42973;DHT22;28610;51.214;6.962;2022-09-24T06:05:56;13.20;95.50
42973;DHT22;28610;51.214;6.962;2022-09-24T06:08:44;13.10;95.50
42973;DHT22;28610;51.214;6.962;2022-09-24T06:11:30;13.20;95.60
42973;DHT22;28610;51.214;6.962;2022-09-24T06:14:19;13.20;95.50
42973;DHT22;28610;51.214;6.962;2022-09-24T06:17:04;13.20;95.60
42973;DHT22;28610;51.214;6.962;2022-09-24T06:19:50;13.20;95.60
42973;DHT22;28610;51.214;6.962;2022-09-24T06:22:35;13.20;95.90
42973;DHT22;28610;51.214;6.962;2022-09-24T06:25:20;13.20;95.80
42973;DHT22;28610;51.214;6.962;2022-09-24T06:28:06;13.20;95.70
42973;DHT22;28610;51.214;6.962;2022-09-24T06:30:53;13.20;95.70
42973;DHT22;28610;51.214;6.962;2022-09-24T06:33:38;13.20;95.60
42973;DHT22;28610;51.214;6.962;2022-09-24T06:36:23;13.20;95.40
42973;DHT22;28610;51.214;6.962;2022-09-24T06:39:09;13.30;95.30
42973;DHT22;28610;51.214;6.962;2022-09-24T06:41:54;13.40;95.10
42973;DHT22;28610;51.214;6.962;2022-09-24T06:44:41;13.40;94.90
42973;DHT22;28610;51.214;6.962;2022-09-24T06:47:27;13.50;94.80
42973;DHT22;28610;51.214;6.962;2022-09-24T06:50:13;13.50;94.30
42973;DHT22;28610;51.214;6.962;2022-09-24T06:52:58;13.70;94.10
42973;DHT22;28610;51.214;6.962;2022-09-24T06:55:44;13.70;93.60
42973;DHT22;28610;51.214;6.962;2022-09-24T06:58:30;13.80;93.40
42973;DHT22;28610;51.214;6.962;2022-09-24T07:01:15;13.90;93.10
42973;DHT22;28610;51.214;6.962;2022-09-24T07:04:02;13.90;93.00
42973;DHT22;28610;51.214;6.962;2022-09-24T07:06:47;14.20;93.00
42973;DHT22;28610;51.214;6.962;2022-09-24T07:09:50;14.20;92.40
42973;DHT22;28610;51.214;6.962;2022-09-24T07:12:36;14.30;91.80
42973;DHT22;28610;51.214;6.962;2022-09-24T07:15:21;14.30;91.80
42973;DHT22;28610;51.214;6.962;2022-09-24T07:18:07;14.30;91.70
42973;DHT22;28610;51.214;6.962;2022-09-24T07:20:55;14.30;91.80
42973;DHT22;28610;51.214;6.962;2022-09-24T07:23:40;14.40;91.70
42973;DHT22;28610;51.214;6.962;2022-09-24T07:26:27;14.40;91.60
42973;DHT22;28610;51.214;6.962;2022-09-24T07:29:12;14.50;91.30
42973;DHT22;28610;51.214;6.962;2022-09-24T07:31:58;14.50;91.30
42973;DHT22;28610;51.214;6.962;2022-09-24T07:34:43;14.60;91.20
42973;DHT22;28610;51.214;6.962;2022-09-24T07:37:30;14.50;91.40
42973;DHT22;28610;51.214;6.962;2022-09-24T07:40:17;14.50;91.70
42973;DHT22;28610;51.214;6.962;2022-09-24T07:43:02;14.70;91.50
42973;DHT22;28610;51.214;6.962;2022-09-24T07:45:49;14.80;90.90
42973;DHT22;28610;51.214;6.962;2022-09-24T07:48:34;15.00;91.00
42973;DHT22;28610;51.214;6.962;2022-09-24T07:51:20;15.00;90.60
42973;DHT22;28610;51.214;6.962;2022-09-24T07:54:07;15.10;90.20
42973;DHT22;28610;51.214;6.962;2022-09-24T07:56:53;15.20;90.00
42973;DHT22;28610;51.214;6.962;2022-09-24T07:59:38;15.30;89.30
42973;DHT22;28610;51.214;6.962;2022-09-24T08:02:24;15.40;88.80
42973;DHT22;28610;51.214;6.962;2022-09-24T08:05:10;15.50;89.60
42973;DHT22;28610;51.214;6.962;2022-09-24T08:07:56;15.70;89.50
42973;DHT22;28610;51.214;6.962;2022-09-24T08:10:42;15.90;89.40
42973;DHT22;28610;51.214;6.962;2022-09-24T08:13:28;16.00;89.80
42973;DHT22;28610;51.214;6.962;2022-09-24T08:16:13;15.80;88.30
42973;DHT22;28610;51.214;6.962;2022-09-24T08:18:59;15.90;90.00
42973;DHT22;28610;51.214;6.962;2022-09-24T08:21:44;15.70;90.00
42973;DHT22;28610;51.214;6.962;2022-09-24T08:24:31;15.70;89.00
42973;DHT22;28610;51.214;6.962;2022-09-24T08:27:19;15.60;89.40
42973;DHT22;28610;51.214;6.962;2022-09-24T08:30:06;15.50;90.00
42973;DHT22;28610;51.214;6.962;2022-09-24T08:32:51;15.50;89.80
42973;DHT22;28610;51.214;6.962;2022-09-24T08:35:37;15.50;89.40
42973;DHT22;28610;51.214;6.962;2022-09-24T08:38:23;15.50;88.90
42973;DHT22;28610;51.214;6.962;2022-09-24T08:41:23;15.40;89.50
42973;DHT22;28610;51.214;6.962;2022-09-24T08:44:17;15.40;90.20
42973;DHT22;28610;51.214;6.962;2022-09-24T08:47:33;15.40;90.70
42973;DHT22;28610;51.214;6.962;2022-09-24T08:50:21;15.50;90.00
42973;DHT22;28610;51.214;6.962;2022-09-24T08:53:13;15.40;88.90
42973;DHT22;28610;51.214;6.962;2022-09-24T08:56:00;15.50;89.80
42973;DHT22;28610;51.214;6.962;2022-09-24T08:58:49;15.60;90.00
42973;DHT22;28610;51.214;6.962;2022-09-24T09:01:40;15.50;89.20
42973;DHT22;28610;51.214;6.962;2022-09-24T09:04:32;15.50;89.60
42973;DHT22;28610;51.214;6.962;2022-09-24T09:07:24;15.70;89.90
42973;DHT22;28610;51.214;6.962;2022-09-24T09:10:12;15.70;88.80
42973;DHT22;28610;51.214;6.962;2022-09-24T09:13:03;15.80;87.30
42973;DHT22;28610;51.214;6.962;2022-09-24T09:16:00;15.90;88.40
42973;DHT22;28610;51.214;6.962;2022-09-24T09:18:53;15.80;87.10
42973;DHT22;28610;51.214;6.962;2022-09-24T09:21:41;15.80;86.80
42973;DHT22;28610;51.214;6.962;2022-09-24T09:24:34;15.90;87.40
42973;DHT22;28610;51.214;6.962;2022-09-24T09:27:21;16.10;87.60
42973;DHT22;28610;51.214;6.962;2022-09-24T09:30:12;16.20;87.80
42973;DHT22;28610;51.214;6.962;2022-09-24T09:33:07;16.30;86.80
42973;DHT22;28610;51.214;6.962;2022-09-24T09:36:03;16.50;86.00
42973;DHT22;28610;51.214;6.962;2022-09-24T09:38:58;16.60;85.60
42973;DHT22;28610;51.214;6.962;2022-09-24T09:41:49;16.80;84.20
42973;DHT22;28610;51.214;6.962;2022-09-24T09:44:39;17.00;82.20
42973;DHT22;28610;51.214;6.962;2022-09-24T09:47:33;17.00;83.00
42973;DHT22;28610;51.214;6.962;2022-09-24T09:50:26;17.20;82.40
42973;DHT22;28610;51.214;6.962;2022-09-24T09:53:23;17.20;82.40
42973;DHT22;28610;51.214;6.962;2022-09-24T09:56:09;17.30;82.30
42973;DHT22;28610;51.214;6.962;2022-09-24T09:59:06;17.40;81.50
42973;DHT22;28610;51.214;6.962;2022-09-24T10:01:52;17.30;81.40
42973;DHT22;28610;51.214;6.962;2022-09-24T10:04:40;17.40;81.40
42973;DHT22;28610;51.214;6.962;2022-09-24T10:07:27;17.50;81.40
42973;DHT22;28610;51.214;6.962;2022-09-24T10:10:19;17.40;80.60
42973;DHT22;28610;51.214;6.962;2022-09-24T10:13:07;17.50;81.10
42973;DHT22;28610;51.214;6.962;2022-09-24T10:15:54;17.50;81.30
42973;DHT22;28610;51.214;6.962;2022-09-24T10:18:44;17.30;80.40
42973;DHT22;28610;51.214;6.962;2022-09-24T10:21:33;17.30;82.00
42973;DHT22;28610;51.214;6.962;2022-09-24T10:24:21;17.20;81.30
42973;DHT22;28610;51.214;6.962;2022-09-24T10:27:21;17.30;80.40
42973;DHT22;28610;51.214;6.962;2022-09-24T10:30:14;17.40;79.80
42973;DHT22;28610;51.214;6.962;2022-09-24T10:33:17;17.50;79.50
42973;DHT22;28610;51.214;6.962;2022-09-24T10:36:03;17.60;79.00
42973;DHT22;28610;51.214;6.962;2022-09-24T10:39:01;17.60;79.10
42973;DHT22;28610;51.214;6.962;2022-09-24T10:41:47;17.60;80.00
42973;DHT22;28610;51.214;6.962;2022-09-24T10:44:36;17.40;82.00
42973;DHT22;28610;51.214;6.962;2022-09-24T10:47:25;17.50;83.10
42973;DHT22;28610;51.214;6.962;2022-09-24T10:50:22;17.40;81.60
42973;DHT22;28610;51.214;6.962;2022-09-24T10:53:12;17.20;81.80
42973;DHT22;28610;51.214;6.962;2022-09-24T10:56:03;17.50;83.10
42973;DHT22;28610;51.214;6.962;2022-09-24T10:59:12;17.40;82.20
42973;DHT22;28610;51.214;6.962;2022-09-24T11:02:19;17.20;79.30
42973;DHT22;28610;51.214;6.962;2022-09-24T11:05:10;17.40;81.00
42973;DHT22;28610;51.214;6.962;2022-09-24T11:08:03;17.60;81.00
42973;DHT22;28610;51.214;6.962;2022-09-24T11:11:05;17.50;81.80
42973;DHT22;28610;51.214;6.962;2022-09-24T11:14:01;17.60;82.70
42973;DHT22;28610;51.214;6.962;2022-09-24T11:17:00;17.70;82.00
42973;DHT22;28610;51.214;6.962;2022-09-24T11:23:21;17.80;82.60
42973;DHT22;28610;51.214;6.962;2022-09-24T11:26:21;17.70;81.30
42973;DHT22;28610;51.214;6.962;2022-09-24T11:29:19;17.80;80.20
42973;DHT22;28610;51.214;6.962;2022-09-24T11:32:12;17.80;79.60
42973;DHT22;28610;51.214;6.962;2022-09-24T11:35:20;17.70;80.30
42973;DHT22;28610;51.214;6.962;2022-09-24T11:38:11;17.60;81.00
42973;DHT22;28610;51.214;6.962;2022-09-24T11:41:07;17.70;81.20
42973;DHT22;28610;51.214;6.962;2022-09-24T11:44:08;17.80;80.10
42973;DHT22;28610;51.214;6.962;2022-09-24T11:47:11;17.70;79.50
42973;DHT22;28610;51.214;6.962;2022-09-24T11:50:16;17.70;80.80
42973;DHT22;28610;51.214;6.962;2022-09-24T11:53:10;17.40;79.80
42973;DHT22;28610;51.214;6.962;2022-09-24T11:55:58;17.50;80.50
42973;DHT22;28610;51.214;6.962;2022-09-24T11:58:50;17.40;79.90
42973;DHT22;28610;51.214;6.962;2022-09-24T12:01:46;17.40;81.40
42973;DHT22;28610;51.214;6.962;2022-09-24T12:04:44;17.20;81.40
42973;DHT22;28610;51.214;6.962;2022-09-24T12:07:36;17.30;81.00
42973;DHT22;28610;51.214;6.962;2022-09-24T12:10:29;17.30;80.00
42973;DHT22;28610;51.214;6.962;2022-09-24T12:13:19;17.30;80.60
42973;DHT22;28610;51.214;6.962;2022-09-24T12:16:10;17.20;81.30
42973;DHT22;28610;51.214;6.962;2022-09-24T12:19:01;17.20;80.70
42973;DHT22;28610;51.214;6.962;2022-09-24T12:21:51;17.30;81.00
42973;DHT22;28610;51.214;6.962;2022-09-24T12:24:42;17.30;80.20
42973;DHT22;28610;51.214;6.962;2022-09-24T12:27:33;17.20;81.00
42973;DHT22;28610;51.214;6.962;2022-09-24T12:30:27;17.20;82.00
42973;DHT22;28610;51.214;6.962;2022-09-24T12:33:37;17.20;80.60
42973;DHT22;28610;51.214;6.962;2022-09-24T12:36:36;17.20;81.90
42973;DHT22;28610;51.214;6.962;2022-09-24T12:39:29;17.30;81.50
42973;DHT22;28610;51.214;6.962;2022-09-24T12:42:19;17.30;80.00
42973;DHT22;28610;51.214;6.962;2022-09-24T12:45:12;17.20;79.40
42973;DHT22;28610;51.214;6.962;2022-09-24T12:48:00;17.20;79.80
42973;DHT22;28610;51.214;6.962;2022-09-24T12:50:55;17.30;79.30
42973;DHT22;28610;51.214;6.962;2022-09-24T12:53:54;17.30;80.40
42973;DHT22;28610;51.214;6.962;2022-09-24T12:56:40;17.40;79.40
42973;DHT22;28610;51.214;6.962;2022-09-24T12:59:27;17.40;78.90
42973;DHT22;28610;51.214;6.962;2022-09-24T13:02:15;17.40;78.40
42973;DHT22;28610;51.214;6.962;2022-09-24T13:05:16;17.40;79.90
42973;DHT22;28610;51.214;6.962;2022-09-24T13:08:22;17.50;78.80
42973;DHT22;28610;51.214;6.962;2022-09-24T13:11:25;17.50;80.30
42973;DHT22;28610;51.214;6.962;2022-09-24T13:14:19;17.70;80.90
42973;DHT22;28610;51.214;6.962;2022-09-24T13:17:07;17.80;78.40
42973;DHT22;28610;51.214;6.962;2022-09-24T13:19:57;17.90;78.20
42973;DHT22;28610;51.214;6.962;2022-09-24T13:22:42;17.80;78.10
42973;DHT22;28610;51.214;6.962;2022-09-24T13:25:39;17.90;78.00
42973;DHT22;28610;51.214;6.962;2022-09-24T13:28:26;17.80;79.60
42973;DHT22;28610;51.214;6.962;2022-09-24T13:31:16;17.80;80.10
42973;DHT22;28610;51.214;6.962;2022-09-24T13:34:13;17.70;80.90
42973;DHT22;28610;51.214;6.962;2022-09-24T13:37:03;17.50;82.90
42973;DHT22;28610;51.214;6.962;2022-09-24T13:39:57;17.50;84.20
42973;DHT22;28610;51.214;6.962;2022-09-24T13:42:46;17.40;84.20
42973;DHT22;28610;51.214;6.962;2022-09-24T13:45:35;17.30;84.00
42973;DHT22;28610;51.214;6.962;2022-09-24T13:48:32;17.20;85.10
42973;DHT22;28610;51.214;6.962;2022-09-24T13:51:24;17.20;85.30
42973;DHT22;28610;51.214;6.962;2022-09-24T13:54:15;17.20;84.70
42973;DHT22;28610;51.214;6.962;2022-09-24T13:57:10;17.30;85.60
42973;DHT22;28610;51.214;6.962;2022-09-24T14:00:13;17.30;85.00
42973;DHT22;28610;51.214;6.962;2022-09-24T14:03:02;17.40;85.40
42973;DHT22;28610;51.214;6.962;2022-09-24T14:05:50;17.40;84.80
42973;DHT22;28610;51.214;6.962;2022-09-24T14:08:40;17.40;85.20
42973;DHT22;28610;51.214;6.962;2022-09-24T14:11:26;17.40;85.70
42973;DHT22;28610;51.214;6.962;2022-09-24T14:14:15;17.40;84.30
42973;DHT22;28610;51.214;6.962;2022-09-24T14:17:06;17.40;85.40
42973;DHT22;28610;51.214;6.962;2022-09-24T14:19:55;17.50;84.80
42973;DHT22;28610;51.214;6.962;2022-09-24T14:22:43;17.50;84.70
42973;DHT22;28610;51.214;6.962;2022-09-24T14:25:32;17.50;84.40
42973;DHT22;28610;51.214;6.962;2022-09-24T14:28:19;17.50;84.50
42973;DHT22;28610;51.214;6.962;2022-09-24T14:31:07;17.50;84.00
42973;DHT22;28610;51.214;6.962;2022-09-24T14:33:53;17.60;84.40
42973;DHT22;28610;51.214;6.962;2022-09-24T14:36:38;17.40;85.50
42973;DHT22;28610;51.214;6.962;2022-09-24T14:39:26;17.40;85.50
42973;DHT22;28610;51.214;6.962;2022-09-24T14:42:20;17.20;87.20
42973;DHT22;28610;51.214;6.962;2022-09-24T14:45:07;17.30;86.50
42973;DHT22;28610;51.214;6.962;2022-09-24T14:48:00;17.30;86.40
42973;DHT22;28610;51.214;6.962;2022-09-24T14:50:46;17.20;85.80
42973;DHT22;28610;51.214;6.962;2022-09-24T14:53:33;17.00;87.30
42973;DHT22;28610;51.214;6.962;2022-09-24T14:56:20;17.00;85.60
42973;DHT22;28610;51.214;6.962;2022-09-24T14:59:14;16.90;87.00
42973;DHT22;28610;51.214;6.962;2022-09-24T15:02:20;16.90;87.40
42973;DHT22;28610;51.214;6.962;2022-09-24T15:05:07;16.90;87.20
42973;DHT22;28610;51.214;6.962;2022-09-24T15:08:14;16.90;87.80
42973;DHT22;28610;51.214;6.962;2022-09-24T15:11:02;16.90;87.50
42973;DHT22;28610;51.214;6.962;2022-09-24T15:13:57;16.70;86.90
42973;DHT22;28610;51.214;6.962;2022-09-24T15:16:45;16.70;88.10
42973;DHT22;28610;51.214;6.962;2022-09-24T15:19:30;16.70;88.90
42973;DHT22;28610;51.214;6.962;2022-09-24T15:22:16;16.70;88.70
42973;DHT22;28610;51.214;6.962;2022-09-24T15:25:01;16.80;89.40
42973;DHT22;28610;51.214;6.962;2022-09-24T15:27:47;16.70;89.90
42973;DHT22;28610;51.214;6.962;2022-09-24T15:30:35;16.70;89.90
42973;DHT22;28610;51.214;6.962;2022-09-24T15:33:24;16.70;90.00
42973;DHT22;28610;51.214;6.962;2022-09-24T15:36:10;16.70;89.70
42973;DHT22;28610;51.214;6.962;2022-09-24T15:39:00;16.60;90.20
42973;DHT22;28610;51.214;6.962;2022-09-24T15:41:46;16.60;90.30
42973;DHT22;28610;51.214;6.962;2022-09-24T15:44:32;16.60;90.10
42973;DHT22;28610;51.214;6.962;2022-09-24T15:47:17;16.50;90.30
42973;DHT22;28610;51.214;6.962;2022-09-24T15:50:05;16.40;90.30
42973;DHT22;28610;51.214;6.962;2022-09-24T15:52:53;16.40;90.60
42973;DHT22;28610;51.214;6.962;2022-09-24T15:55:39;16.50;90.60
42973;DHT22;28610;51.214;6.962;2022-09-24T15:58:25;16.40;90.70
42973;DHT22;28610;51.214;6.962;2022-09-24T16:01:15;16.40;90.70
42973;DHT22;28610;51.214;6.962;2022-09-24T16:04:01;16.40;90.40
42973;DHT22;28610;51.214;6.962;2022-09-24T16:06:48;16.40;90.70
42973;DHT22;28610;51.214;6.962;2022-09-24T16:09:33;16.40;90.90
42973;DHT22;28610;51.214;6.962;2022-09-24T16:12:19;16.40;91.00
42973;DHT22;28610;51.214;6.962;2022-09-24T16:15:05;16.40;91.00
42973;DHT22;28610;51.214;6.962;2022-09-24T16:17:51;16.30;91.10
42973;DHT22;28610;51.214;6.962;2022-09-24T16:20:37;16.30;91.20
42973;DHT22;28610;51.214;6.962;2022-09-24T16:23:24;16.30;91.50
42973;DHT22;28610;51.214;6.962;2022-09-24T16:26:09;16.20;91.50
42973;DHT22;28610;51.214;6.962;2022-09-24T16:28:55;16.30;91.60
42973;DHT22;28610;51.214;6.962;2022-09-24T16:31:40;16.20;91.80
42973;DHT22;28610;51.214;6.962;2022-09-24T16:37:15;16.20;91.60
42973;DHT22;28610;51.214;6.962;2022-09-24T16:40:02;16.10;91.70
42973;DHT22;28610;51.214;6.962;2022-09-24T16:42:48;16.10;91.90
42973;DHT22;28610;51.214;6.962;2022-09-24T16:45:33;16.00;91.80
42973;DHT22;28610;51.214;6.962;2022-09-24T16:48:19;16.00;91.70
42973;DHT22;28610;51.214;6.962;2022-09-24T16:51:06;16.00;92.00
42973;DHT22;28610;51.214;6.962;2022-09-24T16:53:53;16.00;92.10
42973;DHT22;28610;51.214;6.962;2022-09-24T16:56:40;16.00;92.10
42973;DHT22;28610;51.214;6.962;2022-09-24T16:59:25;15.90;92.20
42973;DHT22;28610;51.214;6.962;2022-09-24T17:02:11;15.90;92.30
42973;DHT22;28610;51.214;6.962;2022-09-24T17:04:56;16.00;92.40
42973;DHT22;28610;51.214;6.962;2022-09-24T17:07:42;16.00;92.60
42973;DHT22;28610;51.214;6.962;2022-09-24T17:10:27;15.90;92.70
42973;DHT22;28610;51.214;6.962;2022-09-24T17:13:13;15.80;93.00
42973;DHT22;28610;51.214;6.962;2022-09-24T17:16:00;15.80;93.20
42973;DHT22;28610;51.214;6.962;2022-09-24T17:18:45;15.70;93.30
42973;DHT22;28610;51.214;6.962;2022-09-24T17:21:31;15.70;93.40
42973;DHT22;28610;51.214;6.962;2022-09-24T17:24:16;15.70;93.50
42973;DHT22;28610;51.214;6.962;2022-09-24T17:27:02;15.70;93.80
42973;DHT22;28610;51.214;6.962;2022-09-24T17:29:49;15.60;93.90
42973;DHT22;28610;51.214;6.962;2022-09-24T17:32:34;15.70;93.60
42973;DHT22;28610;51.214;6.962;2022-09-24T17:35:19;15.60;93.80
42973;DHT22;28610;51.214;6.962;2022-09-24T17:38:05;15.60;94.00
42973;DHT22;28610;51.214;6.962;2022-09-24T17:40:55;15.50;94.00
42973;DHT22;28610;51.214;6.962;2022-09-24T17:43:41;15.50;94.00
42973;DHT22;28610;51.214;6.962;2022-09-24T17:46:29;15.50;94.10
42973;DHT22;28610;51.214;6.962;2022-09-24T17:49:15;15.50;94.10
42973;DHT22;28610;51.214;6.962;2022-09-24T17:52:01;15.50;94.10